sensor_id;sensor_type;location;lat;lon;timestamp;P1;durP1;ratioP1;P2;durP2;ratioP2
5137;SDS011;53959;53.626;11.410;2023-08-07T00:00:02;2.73;;;2.53;;
5137;SDS011;53959;53.626;11.410;2023-08-07T00:02:30;13.57;;;3.90;;
5137;SDS011;53959;53.626;11.410;2023-08-07T00:04:55;9.93;;;3.27;;
5137;SDS011;53959;53.626;11.410;2023-08-07T00:07:22;4.27;;;2.80;;
5137;SDS011;53959;53.626;11.410;2023-08-07T00:09:49;3.77;;;3.17;;
5137;SDS011;53959;53.626;11.410;2023-08-07T00:12:15;4.33;;;2.90;;
5137;SDS011;53959;53.626;11.410;2023-08-07T00:14:40;5.60;;;2.97;;
5137;SDS011;53959;53.626;11.410;2023-08-07T00:17:05;5.33;;;3.23;;
5137;SDS011;53959;53.626;11.410;2023-08-07T00:19:31;12.53;;;3.53;;
5137;SDS011;53959;53.626;11.410;2023-08-07T00:21:56;4.00;;;3.27;;
5137;SDS011;53959;53.626;11.410;2023-08-07T00:24:22;4.50;;;3.33;;
5137;SDS011;53959;53.626;11.410;2023-08-07T00:26:47;3.00;;;2.70;;
5137;SDS011;53959;53.626;11.410;2023-08-07T00:29:12;3.57;;;2.93;;
5137;SDS011;53959;53.626;11.410;2023-08-07T00:31:38;6.37;;;2.70;;
5137;SDS011;53959;53.626;11.410;2023-08-07T00:34:03;10.73;;;3.43;;
5137;SDS011;53959;53.626;11.410;2023-08-07T00:36:29;4.77;;;3.27;;
5137;SDS011;53959;53.626;11.410;2023-08-07T00:38:56;7.60;;;2.83;;
5137;SDS011;53959;53.626;11.410;2023-08-07T00:41:21;4.80;;;2.73;;
5137;SDS011;53959;53.626;11.410;2023-08-07T00:43:47;3.30;;;2.53;;
5137;SDS011;53959;53.626;11.410;2023-08-07T00:46:12;2.93;;;2.70;;
5137;SDS011;53959;53.626;11.410;2023-08-07T00:48:37;9.00;;;2.70;;
5137;SDS011;53959;53.626;11.410;2023-08-07T00:51:04;8.27;;;3.00;;
5137;SDS011;53959;53.626;11.410;2023-08-07T00:53:32;6.53;;;2.70;;
5137;SDS011;53959;53.626;11.410;2023-08-07T00:55:58;8.23;;;2.77;;
5137;SDS011;53959;53.626;11.410;2023-08-07T00:58:25;2.70;;;2.60;;
5137;SDS011;53959;53.626;11.410;2023-08-07T01:00:50;5.20;;;2.50;;
5137;SDS011;53959;53.626;11.410;2023-08-07T01:03:16;4.47;;;2.57;;
5137;SDS011;53959;53.626;11.410;2023-08-07T01:05:41;5.33;;;2.43;;
5137;SDS011;53959;53.626;11.410;2023-08-07T01:08:07;7.37;;;2.70;;
5137;SDS011;53959;53.626;11.410;2023-08-07T01:19:24;4.30;;;2.70;;
5137;SDS011;53959;53.626;11.410;2023-08-07T01:22:05;6.07;;;2.63;;
5137;SDS011;53959;53.626;11.410;2023-08-07T01:24:33;2.43;;;1.90;;
5137;SDS011;53959;53.626;11.410;2023-08-07T01:29:37;2.43;;;2.10;;
5137;SDS011;53959;53.626;11.410;2023-08-07T01:32:09;4.93;;;2.67;;
5137;SDS011;53959;53.626;11.410;2023-08-07T01:34:38;2.80;;;2.30;;
5137;SDS011;53959;53.626;11.410;2023-08-07T01:37:06;3.23;;;2.53;;
5137;SDS011;53959;53.626;11.410;2023-08-07T01:39:34;5.50;;;2.53;;
5137;SDS011;53959;53.626;11.410;2023-08-07T01:42:00;3.80;;;2.57;;
5137;SDS011;53959;53.626;11.410;2023-08-07T01:44:27;6.00;;;2.70;;
5137;SDS011;53959;53.626;11.410;2023-08-07T01:46:53;5.60;;;2.30;;
5137;SDS011;53959;53.626;11.410;2023-08-07T01:49:20;6.73;;;2.03;;
5137;SDS011;53959;53.626;11.410;2023-08-07T01:51:45;4.80;;;2.60;;
5137;SDS011;53959;53.626;11.410;2023-08-07T01:54:10;2.23;;;2.13;;
5137;SDS011;53959;53.626;11.410;2023-08-07T01:56:36;2.13;;;2.00;;
5137;SDS011;53959;53.626;11.410;2023-08-07T01:59:01;5.90;;;2.33;;
5137;SDS011;53959;53.626;11.410;2023-08-07T02:01:26;2.53;;;2.33;;
5137;SDS011;53959;53.626;11.410;2023-08-07T02:03:52;5.10;;;2.50;;
5137;SDS011;53959;53.626;11.410;2023-08-07T02:06:17;1.90;;;1.80;;
5137;SDS011;53959;53.626;11.410;2023-08-07T02:08:44;2.40;;;1.70;;
5137;SDS011;53959;53.626;11.410;2023-08-07T02:11:10;4.37;;;1.90;;
5137;SDS011;53959;53.626;11.410;2023-08-07T02:13:36;3.60;;;2.43;;
5137;SDS011;53959;53.626;11.410;2023-08-07T02:16:01;4.70;;;2.40;;
5137;SDS011;53959;53.626;11.410;2023-08-07T02:18:27;23.03;;;2.23;;
5137;SDS011;53959;53.626;11.410;2023-08-07T02:20:53;8.50;;;2.27;;
5137;SDS011;53959;53.626;11.410;2023-08-07T02:23:18;2.33;;;1.93;;
5137;SDS011;53959;53.626;11.410;2023-08-07T02:25:44;5.23;;;2.23;;
5137;SDS011;53959;53.626;11.410;2023-08-07T02:28:10;3.97;;;2.30;;
5137;SDS011;53959;53.626;11.410;2023-08-07T02:30:36;3.23;;;1.97;;
5137;SDS011;53959;53.626;11.410;2023-08-07T02:33:01;3.03;;;2.53;;
5137;SDS011;53959;53.626;11.410;2023-08-07T02:35:26;5.40;;;1.83;;
5137;SDS011;53959;53.626;11.410;2023-08-07T02:37:52;3.90;;;2.30;;
5137;SDS011;53959;53.626;11.410;2023-08-07T02:40:17;2.10;;;1.87;;
5137;SDS011;53959;53.626;11.410;2023-08-07T02:42:44;5.30;;;1.90;;
5137;SDS011;53959;53.626;11.410;2023-08-07T02:45:09;2.47;;;2.00;;
5137;SDS011;53959;53.626;11.410;2023-08-07T02:47:35;3.50;;;1.47;;
5137;SDS011;53959;53.626;11.410;2023-08-07T02:50:00;5.93;;;2.10;;
5137;SDS011;53959;53.626;11.410;2023-08-07T02:52:25;2.50;;;2.30;;
5137;SDS011;53959;53.626;11.410;2023-08-07T02:54:51;2.30;;;2.10;;
5137;SDS011;53959;53.626;11.410;2023-08-07T02:57:16;4.07;;;1.80;;
5137;SDS011;53959;53.626;11.410;2023-08-07T02:59:42;2.20;;;2.10;;
5137;SDS011;53959;53.626;11.410;2023-08-07T03:02:07;4.00;;;1.63;;
5137;SDS011;53959;53.626;11.410;2023-08-07T03:04:32;7.50;;;2.50;;
5137;SDS011;53959;53.626;11.410;2023-08-07T03:06:58;3.17;;;1.80;;
5137;SDS011;53959;53.626;11.410;2023-08-07T03:09:24;1.67;;;1.57;;
5137;SDS011;53959;53.626;11.410;2023-08-07T03:11:50;2.77;;;1.90;;
5137;SDS011;53959;53.626;11.410;2023-08-07T03:14:15;2.40;;;2.17;;
5137;SDS011;53959;53.626;11.410;2023-08-07T03:16:41;9.23;;;1.70;;
5137;SDS011;53959;53.626;11.410;2023-08-07T03:19:06;4.60;;;2.03;;
5137;SDS011;53959;53.626;11.410;2023-08-07T03:21:32;5.03;;;1.63;;
5137;SDS011;53959;53.626;11.410;2023-08-07T03:23:57;1.83;;;1.73;;
5137;SDS011;53959;53.626;11.410;2023-08-07T03:26:23;3.93;;;1.47;;
5137;SDS011;53959;53.626;11.410;2023-08-07T03:28:48;2.00;;;1.90;;
5137;SDS011;53959;53.626;11.410;2023-08-07T03:31:14;15.03;;;1.70;;
5137;SDS011;53959;53.626;11.410;2023-08-07T03:33:40;3.67;;;2.00;;
5137;SDS011;53959;53.626;11.410;2023-08-07T03:36:05;4.23;;;1.50;;
5137;SDS011;53959;53.626;11.410;2023-08-07T03:38:32;2.30;;;1.43;;
5137;SDS011;53959;53.626;11.410;2023-08-07T03:40:58;2.33;;;1.87;;
5137;SDS011;53959;53.626;11.410;2023-08-07T03:43:24;2.97;;;1.80;;
5137;SDS011;53959;53.626;11.410;2023-08-07T03:45:53;6.00;;;2.50;;
5137;SDS011;53959;53.626;11.410;2023-08-07T03:48:20;5.50;;;2.33;;
5137;SDS011;53959;53.626;11.410;2023-08-07T03:50:46;1.57;;;1.30;;
5137;SDS011;53959;53.626;11.410;2023-08-07T03:53:12;2.40;;;2.10;;
5137;SDS011;53959;53.626;11.410;2023-08-07T03:55:41;1.63;;;1.30;;
5137;SDS011;53959;53.626;11.410;2023-08-07T03:58:07;8.23;;;2.30;;
5137;SDS011;53959;53.626;11.410;2023-08-07T04:00:33;2.60;;;1.20;;
5137;SDS011;53959;53.626;11.410;2023-08-07T04:02:59;4.93;;;1.80;;
5137;SDS011;53959;53.626;11.410;2023-08-07T04:05:24;1.00;;;1.00;;
5137;SDS011;53959;53.626;11.410;2023-08-07T04:07:49;2.13;;;1.60;;
5137;SDS011;53959;53.626;11.410;2023-08-07T04:10:15;8.47;;;1.67;;
5137;SDS011;53959;53.626;11.410;2023-08-07T04:12:40;1.50;;;1.40;;
5137;SDS011;53959;53.626;11.410;2023-08-07T04:15:06;1.77;;;1.67;;
5137;SDS011;53959;53.626;11.410;2023-08-07T04:17:32;5.83;;;1.23;;
5137;SDS011;53959;53.626;11.410;2023-08-07T04:19:57;2.17;;;1.57;;
5137;SDS011;53959;53.626;11.410;2023-08-07T04:22:22;1.73;;;1.43;;
5137;SDS011;53959;53.626;11.410;2023-08-07T04:24:48;2.50;;;1.60;;
5137;SDS011;53959;53.626;11.410;2023-08-07T04:27:13;2.20;;;1.60;;
5137;SDS011;53959;53.626;11.410;2023-08-07T04:29:38;1.60;;;1.50;;
5137;SDS011;53959;53.626;11.410;2023-08-07T04:32:04;7.10;;;1.97;;
5137;SDS011;53959;53.626;11.410;2023-08-07T04:34:30;1.70;;;1.50;;
5137;SDS011;53959;53.626;11.410;2023-08-07T04:36:55;1.20;;;1.20;;
5137;SDS011;53959;53.626;11.410;2023-08-07T04:39:21;6.93;;;1.83;;
5137;SDS011;53959;53.626;11.410;2023-08-07T04:41:47;3.70;;;1.47;;
5137;SDS011;53959;53.626;11.410;2023-08-07T04:44:15;7.40;;;1.70;;
5137;SDS011;53959;53.626;11.410;2023-08-07T04:46:40;3.43;;;1.60;;
5137;SDS011;53959;53.626;11.410;2023-08-07T04:49:06;2.30;;;1.30;;
5137;SDS011;53959;53.626;11.410;2023-08-07T04:51:32;1.63;;;1.53;;
5137;SDS011;53959;53.626;11.410;2023-08-07T04:53:57;6.63;;;1.73;;
5137;SDS011;53959;53.626;11.410;2023-08-07T04:56:23;2.97;;;1.27;;
5137;SDS011;53959;53.626;11.410;2023-08-07T04:58:48;1.60;;;1.50;;
5137;SDS011;53959;53.626;11.410;2023-08-07T05:01:13;6.53;;;1.60;;
5137;SDS011;53959;53.626;11.410;2023-08-07T05:03:39;2.57;;;1.63;;
5137;SDS011;53959;53.626;11.410;2023-08-07T05:06:04;1.70;;;1.60;;
5137;SDS011;53959;53.626;11.410;2023-08-07T05:08:30;4.10;;;1.53;;
5137;SDS011;53959;53.626;11.410;2023-08-07T05:10:56;2.00;;;1.90;;
5137;SDS011;53959;53.626;11.410;2023-08-07T05:13:21;4.03;;;2.07;;
5137;SDS011;53959;53.626;11.410;2023-08-07T05:15:47;1.40;;;1.30;;
5137;SDS011;53959;53.626;11.410;2023-08-07T05:18:13;14.00;;;1.97;;
5137;SDS011;53959;53.626;11.410;2023-08-07T05:20:39;7.33;;;1.50;;
5137;SDS011;53959;53.626;11.410;2023-08-07T05:23:04;3.50;;;2.13;;
5137;SDS011;53959;53.626;11.410;2023-08-07T05:25:30;7.40;;;2.03;;
5137;SDS011;53959;53.626;11.410;2023-08-07T05:27:55;1.60;;;1.47;;
5137;SDS011;53959;53.626;11.410;2023-08-07T05:30:20;2.33;;;2.00;;
5137;SDS011;53959;53.626;11.410;2023-08-07T05:32:46;2.20;;;1.57;;
5137;SDS011;53959;53.626;11.410;2023-08-07T05:35:11;7.03;;;2.40;;
5137;SDS011;53959;53.626;11.410;2023-08-07T05:37:36;4.53;;;1.90;;
5137;SDS011;53959;53.626;11.410;2023-08-07T05:40:02;13.73;;;3.20;;
5137;SDS011;53959;53.626;11.410;2023-08-07T05:42:28;4.20;;;1.80;;
5137;SDS011;53959;53.626;11.410;2023-08-07T05:44:53;5.00;;;2.00;;
5137;SDS011;53959;53.626;11.410;2023-08-07T05:47:19;1.90;;;1.73;;
5137;SDS011;53959;53.626;11.410;2023-08-07T05:49:44;4.07;;;2.27;;
5137;SDS011;53959;53.626;11.410;2023-08-07T05:52:09;1.90;;;1.70;;
5137;SDS011;53959;53.626;11.410;2023-08-07T05:54:35;3.47;;;1.97;;
5137;SDS011;53959;53.626;11.410;2023-08-07T05:57:00;4.03;;;1.97;;
5137;SDS011;53959;53.626;11.410;2023-08-07T05:59:25;4.60;;;1.93;;
5137;SDS011;53959;53.626;11.410;2023-08-07T06:01:51;15.63;;;2.30;;
5137;SDS011;53959;53.626;11.410;2023-08-07T06:04:18;3.67;;;2.03;;
5137;SDS011;53959;53.626;11.410;2023-08-07T06:06:43;4.10;;;1.87;;
5137;SDS011;53959;53.626;11.410;2023-08-07T06:09:09;2.57;;;2.00;;
5137;SDS011;53959;53.626;11.410;2023-08-07T06:11:34;5.17;;;2.03;;
5137;SDS011;53959;53.626;11.410;2023-08-07T06:14:00;4.50;;;2.00;;
5137;SDS011;53959;53.626;11.410;2023-08-07T06:16:25;5.47;;;2.43;;
5137;SDS011;53959;53.626;11.410;2023-08-07T06:18:52;2.00;;;1.77;;
5137;SDS011;53959;53.626;11.410;2023-08-07T06:21:17;11.57;;;1.90;;
5137;SDS011;53959;53.626;11.410;2023-08-07T06:23:43;4.60;;;2.03;;
5137;SDS011;53959;53.626;11.410;2023-08-07T06:26:08;5.00;;;2.40;;
5137;SDS011;53959;53.626;11.410;2023-08-07T06:28:34;6.97;;;2.20;;
5137;SDS011;53959;53.626;11.410;2023-08-07T06:31:05;3.73;;;1.80;;
5137;SDS011;53959;53.626;11.410;2023-08-07T06:33:31;8.43;;;2.00;;
5137;SDS011;53959;53.626;11.410;2023-08-07T06:35:58;7.00;;;2.43;;
5137;SDS011;53959;53.626;11.410;2023-08-07T06:38:24;16.10;;;2.93;;
5137;SDS011;53959;53.626;11.410;2023-08-07T06:40:49;9.87;;;2.10;;
5137;SDS011;53959;53.626;11.410;2023-08-07T06:43:15;9.80;;;2.33;;
5137;SDS011;53959;53.626;11.410;2023-08-07T06:45:40;4.00;;;1.57;;
5137;SDS011;53959;53.626;11.410;2023-08-07T06:48:05;5.90;;;2.00;;
5137;SDS011;53959;53.626;11.410;2023-08-07T06:50:31;6.03;;;2.20;;
5137;SDS011;53959;53.626;11.410;2023-08-07T06:52:56;7.93;;;2.20;;
5137;SDS011;53959;53.626;11.410;2023-08-07T06:55:22;5.40;;;1.67;;
5137;SDS011;53959;53.626;11.410;2023-08-07T06:57:47;6.37;;;1.80;;
5137;SDS011;53959;53.626;11.410;2023-08-07T07:00:13;3.33;;;1.57;;
5137;SDS011;53959;53.626;11.410;2023-08-07T07:02:39;8.47;;;2.47;;
5137;SDS011;53959;53.626;11.410;2023-08-07T07:05:04;5.53;;;2.20;;
5137;SDS011;53959;53.626;11.410;2023-08-07T07:07:30;13.40;;;2.50;;
5137;SDS011;53959;53.626;11.410;2023-08-07T07:09:55;4.93;;;2.13;;
5137;SDS011;53959;53.626;11.410;2023-08-07T07:12:23;20.07;;;2.77;;
5137;SDS011;53959;53.626;11.410;2023-08-07T07:14:48;11.10;;;2.03;;
5137;SDS011;53959;53.626;11.410;2023-08-07T07:17:14;7.07;;;2.13;;
5137;SDS011;53959;53.626;11.410;2023-08-07T07:19:39;6.50;;;1.63;;
5137;SDS011;53959;53.626;11.410;2023-08-07T07:22:04;9.70;;;2.80;;
5137;SDS011;53959;53.626;11.410;2023-08-07T07:24:30;8.77;;;3.33;;
5137;SDS011;53959;53.626;11.410;2023-08-07T07:26:55;9.93;;;2.67;;
5137;SDS011;53959;53.626;11.410;2023-08-07T07:29:20;8.23;;;2.90;;
5137;SDS011;53959;53.626;11.410;2023-08-07T07:31:46;5.30;;;2.00;;
5137;SDS011;53959;53.626;11.410;2023-08-07T07:34:12;11.33;;;2.50;;
5137;SDS011;53959;53.626;11.410;2023-08-07T07:36:37;3.73;;;2.30;;
5137;SDS011;53959;53.626;11.410;2023-08-07T07:39:03;7.07;;;2.43;;
5137;SDS011;53959;53.626;11.410;2023-08-07T07:41:28;12.80;;;2.23;;
5137;SDS011;53959;53.626;11.410;2023-08-07T07:43:53;5.80;;;1.60;;
5137;SDS011;53959;53.626;11.410;2023-08-07T07:46:21;8.73;;;2.77;;
5137;SDS011;53959;53.626;11.410;2023-08-07T07:48:47;7.53;;;2.53;;
5137;SDS011;53959;53.626;11.410;2023-08-07T07:51:12;14.27;;;2.40;;
5137;SDS011;53959;53.626;11.410;2023-08-07T07:53:38;10.97;;;2.33;;
5137;SDS011;53959;53.626;11.410;2023-08-07T07:56:03;3.50;;;1.70;;
5137;SDS011;53959;53.626;11.410;2023-08-07T07:58:28;6.60;;;2.10;;
5137;SDS011;53959;53.626;11.410;2023-08-07T08:00:54;16.53;;;2.80;;
5137;SDS011;53959;53.626;11.410;2023-08-07T08:03:19;11.33;;;2.60;;
5137;SDS011;53959;53.626;11.410;2023-08-07T08:05:48;6.53;;;2.37;;
5137;SDS011;53959;53.626;11.410;2023-08-07T08:08:14;12.60;;;3.13;;
5137;SDS011;53959;53.626;11.410;2023-08-07T08:10:40;14.27;;;3.63;;
5137;SDS011;53959;53.626;11.410;2023-08-07T08:13:08;15.30;;;3.00;;
5137;SDS011;53959;53.626;11.410;2023-08-07T08:15:34;7.50;;;2.33;;
5137;SDS011;53959;53.626;11.410;2023-08-07T08:17:59;15.77;;;3.07;;
5137;SDS011;53959;53.626;11.410;2023-08-07T08:20:24;19.67;;;3.23;;
5137;SDS011;53959;53.626;11.410;2023-08-07T08:22:50;10.70;;;3.40;;
5137;SDS011;53959;53.626;11.410;2023-08-07T08:25:15;12.90;;;4.20;;
5137;SDS011;53959;53.626;11.410;2023-08-07T08:27:42;10.20;;;2.63;;
5137;SDS011;53959;53.626;11.410;2023-08-07T08:30:08;17.50;;;3.10;;
5137;SDS011;53959;53.626;11.410;2023-08-07T08:32:34;23.17;;;4.03;;
5137;SDS011;53959;53.626;11.410;2023-08-07T08:34:59;13.60;;;2.87;;
5137;SDS011;53959;53.626;11.410;2023-08-07T08:37:25;11.03;;;3.50;;
5137;SDS011;53959;53.626;11.410;2023-08-07T08:39:50;15.07;;;3.27;;
5137;SDS011;53959;53.626;11.410;2023-08-07T08:42:15;11.97;;;3.63;;
5137;SDS011;53959;53.626;11.410;2023-08-07T08:44:48;16.53;;;3.43;;
5137;SDS011;53959;53.626;11.410;2023-08-07T08:47:16;11.37;;;3.30;;
5137;SDS011;53959;53.626;11.410;2023-08-07T08:52:41;15.00;;;3.50;;
5137;SDS011;53959;53.626;11.410;2023-08-07T08:55:09;7.73;;;2.70;;
5137;SDS011;53959;53.626;11.410;2023-08-07T08:57:36;19.67;;;3.90;;
5137;SDS011;53959;53.626;11.410;2023-08-07T09:00:02;15.13;;;3.40;;
5137;SDS011;53959;53.626;11.410;2023-08-07T09:02:42;12.23;;;3.00;;
5137;SDS011;53959;53.626;11.410;2023-08-07T09:05:09;8.93;;;3.57;;
5137;SDS011;53959;53.626;11.410;2023-08-07T09:07:34;11.10;;;3.30;;
5137;SDS011;53959;53.626;11.410;2023-08-07T09:10:01;11.50;;;3.10;;
5137;SDS011;53959;53.626;11.410;2023-08-07T09:12:29;13.53;;;3.40;;
5137;SDS011;53959;53.626;11.410;2023-08-07T09:14:57;16.67;;;2.90;;
5137;SDS011;53959;53.626;11.410;2023-08-07T09:17:23;6.90;;;3.07;;
5137;SDS011;53959;53.626;11.410;2023-08-07T09:19:52;9.20;;;2.73;;
5137;SDS011;53959;53.626;11.410;2023-08-07T09:22:18;9.67;;;2.53;;
5137;SDS011;53959;53.626;11.410;2023-08-07T09:24:44;20.17;;;3.33;;
5137;SDS011;53959;53.626;11.410;2023-08-07T09:27:10;20.57;;;2.60;;
5137;SDS011;53959;53.626;11.410;2023-08-07T09:29:36;9.00;;;2.57;;
5137;SDS011;53959;53.626;11.410;2023-08-07T09:32:08;11.67;;;2.53;;
5137;SDS011;53959;53.626;11.410;2023-08-07T09:34:34;6.47;;;2.43;;
5137;SDS011;53959;53.626;11.410;2023-08-07T09:36:59;8.30;;;2.90;;
5137;SDS011;53959;53.626;11.410;2023-08-07T09:39:26;17.00;;;2.50;;
5137;SDS011;53959;53.626;11.410;2023-08-07T09:41:52;14.57;;;3.10;;
5137;SDS011;53959;53.626;11.410;2023-08-07T09:44:17;10.10;;;2.83;;
5137;SDS011;53959;53.626;11.410;2023-08-07T09:46:43;7.00;;;2.37;;
5137;SDS011;53959;53.626;11.410;2023-08-07T09:49:09;50.50;;;5.60;;
5137;SDS011;53959;53.626;11.410;2023-08-07T09:51:45;8.43;;;2.73;;
5137;SDS011;53959;53.626;11.410;2023-08-07T09:54:11;13.30;;;2.83;;
5137;SDS011;53959;53.626;11.410;2023-08-07T09:56:37;10.53;;;3.10;;
5137;SDS011;53959;53.626;11.410;2023-08-07T09:59:03;15.67;;;3.03;;
5137;SDS011;53959;53.626;11.410;2023-08-07T10:01:29;268.53;;;68.57;;
5137;SDS011;53959;53.626;11.410;2023-08-07T10:03:55;47.70;;;9.70;;
5137;SDS011;53959;53.626;11.410;2023-08-07T10:06:20;427.00;;;93.27;;
5137;SDS011;53959;53.626;11.410;2023-08-07T10:08:46;134.27;;;37.27;;
5137;SDS011;53959;53.626;11.410;2023-08-07T10:11:12;4.60;;;2.43;;
5137;SDS011;53959;53.626;11.410;2023-08-07T10:13:39;12.90;;;3.60;;
5137;SDS011;53959;53.626;11.410;2023-08-07T10:16:06;7.60;;;2.37;;
5137;SDS011;53959;53.626;11.410;2023-08-07T10:18:32;40.17;;;21.57;;
5137;SDS011;53959;53.626;11.410;2023-08-07T10:20:58;111.33;;;38.50;;
5137;SDS011;53959;53.626;11.410;2023-08-07T10:23:26;446.37;;;119.10;;
5137;SDS011;53959;53.626;11.410;2023-08-07T10:25:52;101.77;;;46.57;;
5137;SDS011;53959;53.626;11.410;2023-08-07T10:28:19;69.63;;;11.37;;
5137;SDS011;53959;53.626;11.410;2023-08-07T10:30:46;10.70;;;3.00;;
5137;SDS011;53959;53.626;11.410;2023-08-07T10:33:13;181.80;;;41.07;;
5137;SDS011;53959;53.626;11.410;2023-08-07T10:35:44;73.43;;;15.23;;
5137;SDS011;53959;53.626;11.410;2023-08-07T10:38:13;490.03;;;154.43;;
5137;SDS011;53959;53.626;11.410;2023-08-07T10:43:29;371.50;;;133.40;;
5137;SDS011;53959;53.626;11.410;2023-08-07T10:46:05;52.67;;;16.63;;
5137;SDS011;53959;53.626;11.410;2023-08-07T10:48:37;46.83;;;12.23;;
5137;SDS011;53959;53.626;11.410;2023-08-07T10:51:03;1999.90;;;984.67;;
5137;SDS011;53959;53.626;11.410;2023-08-07T10:55:55;29.53;;;12.47;;
5137;SDS011;53959;53.626;11.410;2023-08-07T10:58:32;140.17;;;28.53;;
5137;SDS011;53959;53.626;11.410;2023-08-07T11:03:51;10.60;;;3.53;;
5137;SDS011;53959;53.626;11.410;2023-08-07T11:06:21;1145.87;;;303.70;;
5137;SDS011;53959;53.626;11.410;2023-08-07T11:08:49;8.43;;;2.33;;
5137;SDS011;53959;53.626;11.410;2023-08-07T11:11:15;580.27;;;167.47;;
5137;SDS011;53959;53.626;11.410;2023-08-07T11:13:40;149.40;;;39.17;;
5137;SDS011;53959;53.626;11.410;2023-08-07T11:16:05;1935.03;;;574.50;;
5137;SDS011;53959;53.626;11.410;2023-08-07T11:18:32;573.27;;;143.70;;
5137;SDS011;53959;53.626;11.410;2023-08-07T11:20:58;730.33;;;195.70;;
5137;SDS011;53959;53.626;11.410;2023-08-07T11:23:27;1999.90;;;995.43;;
5137;SDS011;53959;53.626;11.410;2023-08-07T11:25:53;1999.90;;;658.03;;
5137;SDS011;53959;53.626;11.410;2023-08-07T11:28:20;1999.90;;;999.90;;
5137;SDS011;53959;53.626;11.410;2023-08-07T11:30:49;635.53;;;160.37;;
5137;SDS011;53959;53.626;11.410;2023-08-07T11:33:19;1999.90;;;852.47;;
5137;SDS011;53959;53.626;11.410;2023-08-07T11:35:45;1999.90;;;957.57;;
5137;SDS011;53959;53.626;11.410;2023-08-07T11:38:11;1999.90;;;877.00;;
5137;SDS011;53959;53.626;11.410;2023-08-07T11:40:36;486.93;;;120.00;;
5137;SDS011;53959;53.626;11.410;2023-08-07T11:43:02;6.27;;;2.37;;
5137;SDS011;53959;53.626;11.410;2023-08-07T11:45:28;310.37;;;57.10;;
5137;SDS011;53959;53.626;11.410;2023-08-07T11:47:54;283.87;;;59.80;;
5137;SDS011;53959;53.626;11.410;2023-08-07T11:50:25;14.00;;;3.33;;
5137;SDS011;53959;53.626;11.410;2023-08-07T11:52:53;9.70;;;2.70;;
5137;SDS011;53959;53.626;11.410;2023-08-07T11:55:18;11.67;;;3.40;;
5137;SDS011;53959;53.626;11.410;2023-08-07T11:57:47;16.20;;;3.50;;
5137;SDS011;53959;53.626;11.410;2023-08-07T12:00:12;12.30;;;2.43;;
5137;SDS011;53959;53.626;11.410;2023-08-07T12:02:44;12.07;;;2.97;;
5137;SDS011;53959;53.626;11.410;2023-08-07T12:05:12;9.13;;;2.60;;
5137;SDS011;53959;53.626;11.410;2023-08-07T12:07:38;9.30;;;3.00;;
5137;SDS011;53959;53.626;11.410;2023-08-07T12:10:08;18.03;;;3.17;;
5137;SDS011;53959;53.626;11.410;2023-08-07T12:12:37;8.03;;;2.70;;
5137;SDS011;53959;53.626;11.410;2023-08-07T12:15:07;9.40;;;2.07;;
5137;SDS011;53959;53.626;11.410;2023-08-07T12:17:33;4.33;;;3.10;;
5137;SDS011;53959;53.626;11.410;2023-08-07T12:19:58;7.63;;;2.63;;
5137;SDS011;53959;53.626;11.410;2023-08-07T12:22:26;13.70;;;1.97;;
5137;SDS011;53959;53.626;11.410;2023-08-07T12:24:52;10.17;;;2.47;;
5137;SDS011;53959;53.626;11.410;2023-08-07T12:27:18;6.40;;;2.07;;
5137;SDS011;53959;53.626;11.410;2023-08-07T12:29:44;7.77;;;1.70;;
5137;SDS011;53959;53.626;11.410;2023-08-07T12:32:10;10.93;;;2.90;;
5137;SDS011;53959;53.626;11.410;2023-08-07T12:34:35;8.70;;;2.53;;
5137;SDS011;53959;53.626;11.410;2023-08-07T12:37:01;3.97;;;1.90;;
5137;SDS011;53959;53.626;11.410;2023-08-07T12:39:26;7.00;;;2.47;;
5137;SDS011;53959;53.626;11.410;2023-08-07T12:41:51;8.87;;;1.80;;
5137;SDS011;53959;53.626;11.410;2023-08-07T12:44:17;8.80;;;2.27;;
5137;SDS011;53959;53.626;11.410;2023-08-07T12:46:42;3.40;;;1.87;;
5137;SDS011;53959;53.626;11.410;2023-08-07T12:49:10;4.80;;;2.20;;
5137;SDS011;53959;53.626;11.410;2023-08-07T12:51:36;6.90;;;2.10;;
5137;SDS011;53959;53.626;11.410;2023-08-07T12:54:01;4.57;;;2.13;;
5137;SDS011;53959;53.626;11.410;2023-08-07T12:56:27;1999.90;;;811.10;;
5137;SDS011;53959;53.626;11.410;2023-08-07T12:58:52;1999.90;;;859.50;;
5137;SDS011;53959;53.626;11.410;2023-08-07T13:01:17;1999.90;;;830.50;;
5137;SDS011;53959;53.626;11.410;2023-08-07T13:03:42;1999.90;;;833.47;;
5137;SDS011;53959;53.626;11.410;2023-08-07T13:06:08;7.53;;;2.30;;
5137;SDS011;53959;53.626;11.410;2023-08-07T13:08:36;16.80;;;2.63;;
5137;SDS011;53959;53.626;11.410;2023-08-07T13:11:02;6.93;;;2.80;;
5137;SDS011;53959;53.626;11.410;2023-08-07T13:13:27;5.97;;;2.23;;
5137;SDS011;53959;53.626;11.410;2023-08-07T13:15:53;8.90;;;2.50;;
5137;SDS011;53959;53.626;11.410;2023-08-07T13:18:19;4.27;;;1.90;;
5137;SDS011;53959;53.626;11.410;2023-08-07T13:20:44;5.83;;;2.63;;
5137;SDS011;53959;53.626;11.410;2023-08-07T13:23:10;5.50;;;2.10;;
5137;SDS011;53959;53.626;11.410;2023-08-07T13:25:37;9.50;;;2.30;;
5137;SDS011;53959;53.626;11.410;2023-08-07T13:28:02;10.23;;;1.97;;
5137;SDS011;53959;53.626;11.410;2023-08-07T13:30:32;8.97;;;2.00;;
5137;SDS011;53959;53.626;11.410;2023-08-07T13:32:57;8.93;;;2.30;;
5137;SDS011;53959;53.626;11.410;2023-08-07T13:35:23;11.53;;;2.07;;
5137;SDS011;53959;53.626;11.410;2023-08-07T13:37:48;10.63;;;2.70;;
5137;SDS011;53959;53.626;11.410;2023-08-07T13:40:14;12.87;;;2.17;;
5137;SDS011;53959;53.626;11.410;2023-08-07T13:42:39;5.27;;;2.10;;
5137;SDS011;53959;53.626;11.410;2023-08-07T13:45:05;6.20;;;2.13;;
5137;SDS011;53959;53.626;11.410;2023-08-07T13:47:31;12.43;;;2.40;;
5137;SDS011;53959;53.626;11.410;2023-08-07T13:49:56;11.57;;;2.43;;
5137;SDS011;53959;53.626;11.410;2023-08-07T13:52:23;7.30;;;1.63;;
5137;SDS011;53959;53.626;11.410;2023-08-07T13:54:49;5.97;;;2.33;;
5137;SDS011;53959;53.626;11.410;2023-08-07T13:57:15;8.63;;;2.40;;
5137;SDS011;53959;53.626;11.410;2023-08-07T13:59:40;7.60;;;1.97;;
5137;SDS011;53959;53.626;11.410;2023-08-07T14:02:06;4.37;;;1.97;;
5137;SDS011;53959;53.626;11.410;2023-08-07T14:04:31;10.73;;;2.63;;
5137;SDS011;53959;53.626;11.410;2023-08-07T14:06:57;26.40;;;2.60;;
5137;SDS011;53959;53.626;11.410;2023-08-07T14:09:23;9.60;;;2.70;;
5137;SDS011;53959;53.626;11.410;2023-08-07T14:11:49;13.40;;;3.03;;
5137;SDS011;53959;53.626;11.410;2023-08-07T14:14:14;1999.90;;;964.70;;
5137;SDS011;53959;53.626;11.410;2023-08-07T14:16:40;1999.90;;;839.13;;
5137;SDS011;53959;53.626;11.410;2023-08-07T14:19:05;1999.90;;;836.67;;
5137;SDS011;53959;53.626;11.410;2023-08-07T14:21:31;1999.90;;;872.23;;
5137;SDS011;53959;53.626;11.410;2023-08-07T14:23:56;1999.90;;;841.37;;
5137;SDS011;53959;53.626;11.410;2023-08-07T14:26:21;1999.90;;;981.90;;
5137;SDS011;53959;53.626;11.410;2023-08-07T14:28:47;7.97;;;2.00;;
5137;SDS011;53959;53.626;11.410;2023-08-07T14:31:12;7.00;;;2.20;;
5137;SDS011;53959;53.626;11.410;2023-08-07T14:33:37;2.73;;;1.30;;
5137;SDS011;53959;53.626;11.410;2023-08-07T14:36:03;8.33;;;1.70;;
5137;SDS011;53959;53.626;11.410;2023-08-07T14:38:29;9.97;;;2.13;;
5137;SDS011;53959;53.626;11.410;2023-08-07T14:40:55;5.23;;;1.63;;
5137;SDS011;53959;53.626;11.410;2023-08-07T14:43:22;10.40;;;1.63;;
5137;SDS011;53959;53.626;11.410;2023-08-07T14:45:47;6.17;;;1.90;;
5137;SDS011;53959;53.626;11.410;2023-08-07T14:48:13;1999.90;;;952.83;;
5137;SDS011;53959;53.626;11.410;2023-08-07T14:50:39;10.30;;;2.30;;
5137;SDS011;53959;53.626;11.410;2023-08-07T14:53:05;9.93;;;2.53;;